Portada
METAR-TAF:

METAR-TAF

Aeroports :

Yankton, Dakota del Sud, Estats Units d'Amèrica

latitud: 42-55N, longitud: 097-23W, altitud: 398 m

Observació

L'informe es va fer fa 29 minuts, a les 07:27 UTC
Vent calma
Temperatura 18°C
Humitat 100%
Pressió 1018 hPa
Visibilitat: 6.4 km
Núvols disperses a una alçada de 2200 ft
Cel ennuvolat a una alçada de 2900 ft
Cel ennuvolat a una alçada de 3400 ft
boirina

METAR: KYKN 200727Z AUTO 00000KT 4SM BR SCT022 BKN029 BKN034 18/18 A3007 RMK AO2 $

Hora: 02:56 (07:56 UTC)


TAF: manca

Observacions i pronòstics meteorològics de més de 4000 aeroports (METAR i TAF).

Les estacions disponibles són els punts grocs i vermells al mapa.

Posi el ratolí al punt desitjat per veure el nom de l'estació.

Feu clic per veure les observacions i els pronòstics meteorològics.

Per canviar el mapa: feu clic els botons verds amb una creu de color negre per apropar; al botó verd amb un guió per allunyar la imatge; o en les fletxes verdes per a mapes adjacents.


METAR-TAF: